createdAt,value
2022-11-14T00:02:03.398Z,25.92
2022-11-14T00:04:49.004Z,117.32
2022-11-14T00:07:34.941Z,25.13
2022-11-14T00:10:21.077Z,26.10
2022-11-14T00:13:06.858Z,25.23
2022-11-14T00:15:55.936Z,25.35
2022-11-14T00:18:41.629Z,27.88
2022-11-14T00:21:27.583Z,35.17
2022-11-14T00:24:13.408Z,32.88
2022-11-14T00:26:59.376Z,78.78
2022-11-14T00:29:45.255Z,86.63
2022-11-14T00:32:31.369Z,54.05
2022-11-14T00:35:17.353Z,127.63
2022-11-14T00:38:02.964Z,111.22
2022-11-14T00:40:49.028Z,114.63
2022-11-14T00:43:35.026Z,94.97
2022-11-14T00:46:20.885Z,89.65
2022-11-14T00:49:07.011Z,220.60
2022-11-14T00:51:52.590Z,57.22
2022-11-14T00:54:38.511Z,33.47
2022-11-14T00:57:24.582Z,52.40
2022-11-14T01:00:11.695Z,149.77
2022-11-14T01:02:58.217Z,62.58
2022-11-14T01:05:45.318Z,89.45
2022-11-14T01:08:31.519Z,29.48
2022-11-14T01:11:19.570Z,54.15
2022-11-14T01:14:08.425Z,32.30
2022-11-14T01:16:54.196Z,33.67
2022-11-14T01:19:39.535Z,49.70
2022-11-14T01:22:24.946Z,34.78
2022-11-14T01:25:10.833Z,57.42
2022-11-14T01:27:56.799Z,43.72
2022-11-14T01:30:42.714Z,228.68
2022-11-14T01:33:28.302Z,215.68
2022-11-14T01:36:14.315Z,77.07
2022-11-14T01:39:00.187Z,26.17
2022-11-14T01:41:45.516Z,29.92
2022-11-14T01:44:52.335Z,26.85
2022-11-14T01:47:38.009Z,30.33
2022-11-14T01:50:23.936Z,28.65
2022-11-14T01:53:09.953Z,27.55
2022-11-14T01:55:57.655Z,21.60
2022-11-14T01:58:47.389Z,50.78
2022-11-14T02:01:36.111Z,24.05
2022-11-14T02:04:30.666Z,26.58
2022-11-14T02:07:16.438Z,24.65
2022-11-14T02:10:24.932Z,43.83
2022-11-14T02:13:10.808Z,25.63
2022-11-14T02:15:56.703Z,24.25
2022-11-14T02:18:42.685Z,21.10
2022-11-14T02:21:28.654Z,23.00
2022-11-14T02:24:14.516Z,34.75
2022-11-14T02:27:00.605Z,20.83
2022-11-14T02:29:46.312Z,28.45
2022-11-14T02:32:45.072Z,18.33
2022-11-14T02:35:38.003Z,17.27
2022-11-14T02:38:23.939Z,18.75
2022-11-14T02:41:09.846Z,55.08
2022-11-14T02:43:55.865Z,42.20
2022-11-14T02:46:41.744Z,60.38
2022-11-14T02:49:28.562Z,24.90
2022-11-14T02:52:14.261Z,52.28
2022-11-14T02:55:00.023Z,42.03
2022-11-14T02:57:45.887Z,18.67
2022-11-14T03:00:31.869Z,18.08
2022-11-14T03:03:17.750Z,20.35
2022-11-14T03:06:04.196Z,18.73
2022-11-14T03:08:49.952Z,17.30
2022-11-14T03:11:36.005Z,18.73
2022-11-14T03:14:22.110Z,22.25
2022-11-14T03:17:07.919Z,35.17
2022-11-14T03:19:53.949Z,16.65
2022-11-14T03:22:39.757Z,17.95
2022-11-14T03:25:25.676Z,16.50
2022-11-14T03:28:11.600Z,18.73
2022-11-14T03:30:57.449Z,21.58
2022-11-14T03:33:43.558Z,32.30
2022-11-14T03:36:29.569Z,121.47
2022-11-14T03:39:15.425Z,67.53
2022-11-14T03:42:01.447Z,26.77
2022-11-14T03:44:47.313Z,61.03
2022-11-14T03:47:33.223Z,69.95
2022-11-14T03:50:19.318Z,43.60
2022-11-14T03:53:05.116Z,19.65
2022-11-14T03:55:51.808Z,17.33
2022-11-14T03:58:37.541Z,20.83
2022-11-14T04:01:23.435Z,18.80
2022-11-14T04:04:13.600Z,18.52
2022-11-14T04:06:59.756Z,38.97
2022-11-14T04:09:47.068Z,18.88
2022-11-14T04:12:33.200Z,18.65
2022-11-14T04:15:19.463Z,21.05
2022-11-14T04:18:05.339Z,21.30
2022-11-14T04:20:51.923Z,25.83
2022-11-14T04:23:37.733Z,35.03
2022-11-14T04:26:23.647Z,19.20
2022-11-14T04:29:09.608Z,19.77
2022-11-14T04:31:55.089Z,31.50
2022-11-14T04:34:41.005Z,20.27
2022-11-14T04:37:26.577Z,18.75
2022-11-14T04:40:12.273Z,63.85
2022-11-14T04:42:57.806Z,17.20
2022-11-14T04:45:43.699Z,18.48
2022-11-14T04:48:29.777Z,24.80
2022-11-14T04:51:15.649Z,19.00
2022-11-14T04:54:01.626Z,16.45
2022-11-14T04:56:47.581Z,16.48
2022-11-14T04:59:33.649Z,16.25
2022-11-14T05:02:19.254Z,19.50
2022-11-14T05:05:05.517Z,19.52
2022-11-14T05:07:51.410Z,17.70
2022-11-14T05:10:37.445Z,18.52
2022-11-14T05:13:23.566Z,22.52
2022-11-14T05:16:09.312Z,18.75
2022-11-14T05:18:55.484Z,17.30
2022-11-14T05:21:41.476Z,27.88
2022-11-14T05:24:28.497Z,17.67
2022-11-14T05:27:14.367Z,20.45
2022-11-14T05:30:00.336Z,19.70
2022-11-14T05:32:45.854Z,19.30
2022-11-14T05:35:31.740Z,21.60
2022-11-14T05:38:17.222Z,20.42
2022-11-14T05:41:20.136Z,19.52
2022-11-14T05:44:06.096Z,21.52
2022-11-14T05:46:51.638Z,21.42
2022-11-14T05:49:37.547Z,22.85
2022-11-14T05:52:23.518Z,21.42
2022-11-14T05:55:09.600Z,20.42
2022-11-14T05:57:58.540Z,19.15
2022-11-14T06:00:51.971Z,19.40
2022-11-14T06:03:41.445Z,19.70
2022-11-14T06:06:27.096Z,18.80
2022-11-14T06:09:13.018Z,18.13
2022-11-14T06:11:59.093Z,17.50
2022-11-14T06:14:45.082Z,18.00
2022-11-14T06:17:31.079Z,19.75
2022-11-14T06:20:17.122Z,20.90
2022-11-14T06:23:02.940Z,17.85
2022-11-14T06:25:49.017Z,17.05
2022-11-14T06:28:34.909Z,17.35
2022-11-14T06:31:21.101Z,19.15
2022-11-14T06:34:07.121Z,19.95
2022-11-14T06:36:53.100Z,20.00
2022-11-14T06:39:38.923Z,18.88
2022-11-14T06:42:24.873Z,18.92
2022-11-14T06:45:10.843Z,17.35
2022-11-14T06:48:00.028Z,17.58
2022-11-14T06:50:54.551Z,17.77
2022-11-14T06:53:40.297Z,17.67
2022-11-14T06:56:26.016Z,18.02
2022-11-14T06:59:11.989Z,17.27
2022-11-14T07:01:57.953Z,16.58
2022-11-14T07:04:43.763Z,16.75
2022-11-14T07:07:29.838Z,17.42
2022-11-14T07:10:16.061Z,16.17
2022-11-14T07:13:01.663Z,19.40
2022-11-14T07:15:54.060Z,17.85
2022-11-14T07:18:39.992Z,19.60
2022-11-14T07:21:26.522Z,17.58
2022-11-14T07:24:12.332Z,18.67
2022-11-14T07:26:57.916Z,19.05
2022-11-14T07:29:43.857Z,18.52
2022-11-14T07:32:29.988Z,21.83
2022-11-14T07:35:15.941Z,22.25
2022-11-14T07:38:04.618Z,21.98
2022-11-14T07:41:00.891Z,18.65
2022-11-14T07:43:46.485Z,18.65
2022-11-14T07:46:32.392Z,18.90
2022-11-14T07:49:18.405Z,18.42
2022-11-14T07:52:04.494Z,20.05
2022-11-14T07:54:50.292Z,25.17
2022-11-14T07:57:41.073Z,23.77
2022-11-14T08:00:28.689Z,24.88
2022-11-14T08:03:14.653Z,29.20
2022-11-14T08:06:11.193Z,26.35
2022-11-14T08:08:57.246Z,24.77
2022-11-14T08:11:48.441Z,25.40
2022-11-14T08:14:34.571Z,24.80
2022-11-14T08:17:21.405Z,22.27
2022-11-14T08:20:08.026Z,26.05
2022-11-14T08:23:03.748Z,29.80
2022-11-14T08:25:49.491Z,28.75
2022-11-14T08:28:35.495Z,24.70
2022-11-14T08:31:21.801Z,25.63
2022-11-14T08:34:07.920Z,27.35
2022-11-14T08:36:53.715Z,26.20
2022-11-14T08:39:39.997Z,29.08
2022-11-14T08:42:25.885Z,25.33
2022-11-14T08:45:11.561Z,29.65
2022-11-14T08:47:57.617Z,33.95
2022-11-14T08:50:43.456Z,27.88
2022-11-14T08:53:29.713Z,26.02
2022-11-14T08:56:15.589Z,26.17
2022-11-14T08:59:04.021Z,27.02
2022-11-14T09:01:49.687Z,23.55
2022-11-14T09:04:35.242Z,18.90
2022-11-14T09:07:21.130Z,19.42
2022-11-14T09:10:08.257Z,18.92
2022-11-14T09:12:57.826Z,17.05
2022-11-14T09:15:43.966Z,22.25
2022-11-14T09:18:31.237Z,19.25
2022-11-14T09:21:20.894Z,18.33
2022-11-14T09:24:06.875Z,17.58
2022-11-14T09:26:56.762Z,28.55
2022-11-14T09:29:42.886Z,22.20
2022-11-14T09:32:28.975Z,23.05
2022-11-14T09:35:14.767Z,27.08
2022-11-14T09:38:08.468Z,23.65
2022-11-14T09:41:38.836Z,24.10
2022-11-14T09:44:45.701Z,28.88
2022-11-14T09:47:39.077Z,26.27
2022-11-14T09:50:30.625Z,29.77
2022-11-14T09:53:24.320Z,25.02
2022-11-14T09:56:14.278Z,24.35
2022-11-14T09:58:59.961Z,26.65
2022-11-14T10:02:04.540Z,22.05
2022-11-14T10:05:11.340Z,24.35
2022-11-14T10:08:31.989Z,21.63
2022-11-14T10:11:29.354Z,22.38
2022-11-14T10:14:41.452Z,22.27
2022-11-14T10:17:39.329Z,21.55
2022-11-14T10:20:37.233Z,22.08
2022-11-14T10:23:51.507Z,21.58
2022-11-14T10:26:42.233Z,19.23
2022-11-14T10:29:50.672Z,21.92
2022-11-14T10:32:42.327Z,20.48
2022-11-14T10:35:36.486Z,21.83
2022-11-14T10:38:41.391Z,20.27
2022-11-14T10:44:38.760Z,21.20
2022-11-14T10:47:24.656Z,19.80
2022-11-14T10:50:21.589Z,19.63
2022-11-14T10:53:11.119Z,17.42
2022-11-14T10:56:04.069Z,18.70
2022-11-14T10:58:51.213Z,20.55
2022-11-14T11:01:41.002Z,17.80
2022-11-14T11:04:31.374Z,17.67
2022-11-14T11:07:43.540Z,16.23
2022-11-14T11:10:47.966Z,16.40
2022-11-14T11:13:40.061Z,19.57
2022-11-14T11:16:26.861Z,23.80
2022-11-14T11:19:30.897Z,26.52
2022-11-14T11:22:27.386Z,23.83
2022-11-14T11:25:26.243Z,26.30
2022-11-14T11:28:18.761Z,18.83
2022-11-14T11:31:06.877Z,19.25
2022-11-14T11:33:52.727Z,17.77
2022-11-14T11:36:46.507Z,17.10
2022-11-14T11:39:40.429Z,16.70
2022-11-14T11:43:36.633Z,17.27
2022-11-14T11:46:00.005Z,17.63
2022-11-14T11:48:46.542Z,18.63
2022-11-14T11:51:32.610Z,15.27
2022-11-14T11:54:20.017Z,15.20
2022-11-14T11:57:13.994Z,15.68
2022-11-14T12:00:23.320Z,15.82
2022-11-14T12:03:13.608Z,18.15
2022-11-14T12:06:25.345Z,15.35
2022-11-14T12:09:29.543Z,12.40
2022-11-14T12:13:01.043Z,14.15
2022-11-14T12:15:54.757Z,14.75
2022-11-14T12:18:53.652Z,14.88
2022-11-14T12:22:02.366Z,14.10
2022-11-14T12:25:20.286Z,15.32
2022-11-14T12:28:19.512Z,14.05
2022-11-14T12:31:05.917Z,13.77
2022-11-14T12:33:59.456Z,13.95
2022-11-14T12:36:46.197Z,9.70
2022-11-14T12:39:32.918Z,12.38
2022-11-14T12:42:20.236Z,12.93
2022-11-14T12:45:40.860Z,11.10
2022-11-14T12:48:26.637Z,11.45
2022-11-14T12:51:25.527Z,9.27
2022-11-14T12:54:42.475Z,13.10
2022-11-14T12:57:47.660Z,10.55
2022-11-14T13:00:45.621Z,11.43
2022-11-14T13:03:41.602Z,14.52
2022-11-14T13:06:39.342Z,14.55
2022-11-14T13:09:33.681Z,22.90
2022-11-14T13:12:47.615Z,11.90
2022-11-14T13:16:06.205Z,11.50
2022-11-14T13:19:13.954Z,9.00
2022-11-14T13:22:12.124Z,17.20
2022-11-14T13:25:01.240Z,35.70
2022-11-14T13:31:21.165Z,16.67
2022-11-14T13:34:38.277Z,15.48
2022-11-14T13:37:45.316Z,15.07
2022-11-14T13:41:08.581Z,13.23
2022-11-14T13:44:26.761Z,13.98
2022-11-14T13:47:18.608Z,26.90
2022-11-14T13:50:17.906Z,7.65
2022-11-14T13:53:17.891Z,12.48
2022-11-14T13:56:06.970Z,17.05
2022-11-14T13:59:34.931Z,15.90
2022-11-14T14:02:44.483Z,9.52
2022-11-14T14:05:45.194Z,10.57
2022-11-14T14:09:10.930Z,6.97
2022-11-14T14:14:45.608Z,16.20
2022-11-14T14:17:53.629Z,8.95
2022-11-14T14:20:45.814Z,9.63
2022-11-14T14:23:59.442Z,11.38
2022-11-14T14:27:02.875Z,14.15
2022-11-14T14:29:55.698Z,9.77
2022-11-14T14:32:41.514Z,9.02
2022-11-14T14:35:40.231Z,11.70
2022-11-14T14:38:27.961Z,11.50
2022-11-14T14:41:14.605Z,10.63
2022-11-14T14:44:00.232Z,12.63
2022-11-14T14:46:46.448Z,20.25
2022-11-14T14:49:35.072Z,18.83
2022-11-14T14:52:27.426Z,15.85
2022-11-14T14:55:23.539Z,18.60
2022-11-14T14:58:34.037Z,11.90
2022-11-14T15:01:35.350Z,12.15
2022-11-14T15:04:22.041Z,18.00
2022-11-14T15:07:21.292Z,13.15
2022-11-14T15:10:10.161Z,15.43
2022-11-14T15:12:56.684Z,23.80
2022-11-14T15:15:42.883Z,16.95
2022-11-14T15:18:30.798Z,11.98
2022-11-14T15:21:20.285Z,13.50
2022-11-14T15:24:20.113Z,19.50
2022-11-14T15:27:26.429Z,18.73
2022-11-14T15:30:25.510Z,12.93
2022-11-14T15:33:33.984Z,18.98
2022-11-14T15:36:19.684Z,19.70
2022-11-14T15:39:21.724Z,18.10
2022-11-14T15:42:26.538Z,17.27
2022-11-14T15:45:22.684Z,14.07
2022-11-14T15:48:16.408Z,13.00
2022-11-14T15:51:02.206Z,25.45
2022-11-14T15:53:49.278Z,14.30
2022-11-14T15:56:35.359Z,14.10
2022-11-14T15:59:21.407Z,18.30
2022-11-14T16:02:21.007Z,20.05
2022-11-14T16:08:10.450Z,14.75
2022-11-14T16:10:56.505Z,14.95
2022-11-14T16:13:42.068Z,31.50
2022-11-14T16:16:28.956Z,23.15
2022-11-14T16:19:15.610Z,15.60
2022-11-14T16:22:02.920Z,20.35
2022-11-14T16:24:48.863Z,17.40
2022-11-14T16:27:34.715Z,16.70
2022-11-14T16:30:20.899Z,15.32
2022-11-14T16:33:08.389Z,25.88
2022-11-14T16:35:54.427Z,16.10
2022-11-14T16:38:40.094Z,13.68
2022-11-14T16:41:25.719Z,15.82
2022-11-14T16:44:18.660Z,18.27
2022-11-14T16:47:04.559Z,18.02
2022-11-14T16:49:50.276Z,22.63
2022-11-14T16:52:39.129Z,20.05
2022-11-14T16:55:24.955Z,21.20
2022-11-14T16:58:10.667Z,16.63
2022-11-14T17:00:56.421Z,15.25
2022-11-14T17:03:42.595Z,35.38
2022-11-14T17:06:28.877Z,23.55
2022-11-14T17:09:14.746Z,14.95
2022-11-14T17:12:00.539Z,18.60
2022-11-14T17:14:46.303Z,14.95
2022-11-14T17:17:32.109Z,17.02
2022-11-14T17:20:18.070Z,22.77
2022-11-14T17:26:07.987Z,14.50
2022-11-14T17:28:54.065Z,12.07
2022-11-14T17:31:44.426Z,11.90
2022-11-14T17:34:32.397Z,13.00
2022-11-14T17:37:18.507Z,13.63
2022-11-14T17:40:05.459Z,21.17
2022-11-14T17:42:52.338Z,14.55
2022-11-14T17:45:41.190Z,12.20
2022-11-14T17:48:26.930Z,14.43
2022-11-14T17:51:13.636Z,15.00
2022-11-14T17:53:59.585Z,15.85
2022-11-14T17:56:49.652Z,11.45
2022-11-14T17:59:41.255Z,13.13
2022-11-14T18:02:28.057Z,12.77
2022-11-14T18:05:14.083Z,15.73
2022-11-14T18:07:59.807Z,11.45
2022-11-14T18:10:45.595Z,14.23
2022-11-14T18:13:31.458Z,10.48
2022-11-14T18:16:18.060Z,13.80
2022-11-14T18:19:04.431Z,15.15
2022-11-14T18:21:53.427Z,13.50
2022-11-14T18:24:43.273Z,12.38
2022-11-14T18:27:29.106Z,11.27
2022-11-14T18:30:39.886Z,10.38
2022-11-14T18:33:21.188Z,15.48
2022-11-14T18:36:13.330Z,13.95
2022-11-14T18:38:59.067Z,14.68
2022-11-14T18:41:44.794Z,14.02
2022-11-14T18:44:30.605Z,14.27
2022-11-14T18:47:16.672Z,11.30
2022-11-14T18:50:09.272Z,10.65
2022-11-14T18:52:55.156Z,12.00
2022-11-14T18:55:41.317Z,12.55
2022-11-14T18:58:27.072Z,10.93
2022-11-14T19:01:26.424Z,17.58
2022-11-14T19:04:12.980Z,12.35
2022-11-14T19:06:58.966Z,15.73
2022-11-14T19:09:44.983Z,16.42
2022-11-14T19:12:30.752Z,12.18
2022-11-14T19:15:16.767Z,14.93
2022-11-14T19:18:02.531Z,14.10
2022-11-14T19:21:02.246Z,12.52
2022-11-14T19:23:48.444Z,15.45
2022-11-14T19:26:34.294Z,13.02
2022-11-14T19:29:19.994Z,20.33
2022-11-14T19:32:06.032Z,16.65
2022-11-14T19:34:52.126Z,15.13
2022-11-14T19:37:38.164Z,18.83
2022-11-14T19:40:23.896Z,16.55
2022-11-14T19:43:11.472Z,18.05
2022-11-14T19:46:02.165Z,16.30
2022-11-14T19:48:48.800Z,16.23
2022-11-14T19:51:34.547Z,13.68
2022-11-14T19:54:20.459Z,16.65
2022-11-14T19:57:06.188Z,14.43
2022-11-14T19:59:52.436Z,15.65
2022-11-14T20:02:40.415Z,13.95
2022-11-14T20:05:26.074Z,16.35
2022-11-14T20:08:11.731Z,19.55
2022-11-14T20:11:04.799Z,14.52
2022-11-14T20:13:50.674Z,17.77
2022-11-14T20:16:36.829Z,17.25
2022-11-14T20:22:22.162Z,12.90
2022-11-14T20:25:08.606Z,14.75
2022-11-14T20:27:54.352Z,13.70
2022-11-14T20:30:40.182Z,16.10
2022-11-14T20:33:26.127Z,15.18
2022-11-14T20:36:16.990Z,14.70
2022-11-14T20:39:02.857Z,15.02
2022-11-14T20:41:48.646Z,15.18
2022-11-14T20:44:34.389Z,11.15
2022-11-14T20:47:20.035Z,13.55
2022-11-14T20:50:06.233Z,12.77
2022-11-14T20:52:52.220Z,15.38
2022-11-14T20:55:37.911Z,12.68
2022-11-14T20:58:23.622Z,13.90
2022-11-14T21:01:09.642Z,13.70
2022-11-14T21:03:55.771Z,12.98
2022-11-14T21:06:41.626Z,19.35
2022-11-14T21:09:27.375Z,14.57
2022-11-14T21:12:13.143Z,15.23
2022-11-14T21:14:59.172Z,13.23
2022-11-14T21:17:44.928Z,16.55
2022-11-14T21:20:31.041Z,14.38
2022-11-14T21:23:16.769Z,15.88
2022-11-14T21:26:06.833Z,15.68
2022-11-14T21:29:01.638Z,15.25
2022-11-14T21:31:48.094Z,13.48
2022-11-14T21:34:34.286Z,16.75
2022-11-14T21:37:19.960Z,15.52
2022-11-14T21:40:07.185Z,17.75
2022-11-14T21:42:53.256Z,14.68
2022-11-14T21:45:38.869Z,14.05
2022-11-14T21:48:26.150Z,15.95
2022-11-14T21:51:20.607Z,13.63
2022-11-14T21:54:06.758Z,16.42
2022-11-14T21:56:52.610Z,12.90
2022-11-14T21:59:38.755Z,13.20
2022-11-14T22:02:43.227Z,12.65
2022-11-14T22:05:29.050Z,12.50
2022-11-14T22:08:15.823Z,15.65
2022-11-14T22:11:02.078Z,11.68
2022-11-14T22:13:48.050Z,13.10
2022-11-14T22:16:34.134Z,13.75
2022-11-14T22:19:19.994Z,14.75
2022-11-14T22:22:05.607Z,11.90
2022-11-14T22:24:52.346Z,14.18
2022-11-14T22:27:39.103Z,10.07
2022-11-14T22:30:25.096Z,15.27
2022-11-14T22:33:10.910Z,10.45
2022-11-14T22:36:02.135Z,12.25
2022-11-14T22:38:48.309Z,13.80
2022-11-14T22:41:34.462Z,11.45
2022-11-14T22:44:20.301Z,14.77
2022-11-14T22:47:06.373Z,12.73
2022-11-14T22:49:52.731Z,11.45
2022-11-14T22:52:38.936Z,10.80
2022-11-14T22:55:24.687Z,12.00
2022-11-14T22:58:10.788Z,10.50
2022-11-14T23:00:56.351Z,10.55
2022-11-14T23:03:42.400Z,10.48
2022-11-14T23:06:28.320Z,12.18
2022-11-14T23:09:13.945Z,12.27
2022-11-14T23:11:59.907Z,14.95
2022-11-14T23:14:45.640Z,12.13
2022-11-14T23:17:31.611Z,10.20
2022-11-14T23:20:17.776Z,10.43
2022-11-14T23:23:05.334Z,12.82
2022-11-14T23:25:51.330Z,13.15
2022-11-14T23:28:37.330Z,8.25
2022-11-14T23:31:25.253Z,9.70
2022-11-14T23:34:10.997Z,9.48
2022-11-14T23:36:56.853Z,11.70
2022-11-14T23:39:42.397Z,9.52
2022-11-14T23:42:28.143Z,12.80
2022-11-14T23:45:14.069Z,11.40
2022-11-14T23:47:59.796Z,10.18
2022-11-14T23:50:49.030Z,13.10
2022-11-14T23:53:34.935Z,10.63
2022-11-14T23:56:20.730Z,10.10
2022-11-14T23:59:06.823Z,10.85
